首页
METAR-TAF:

METAR-TAF

机场 :

松本機場

松本, 日本

纬度: 36-10N, 经度: 137-56E, 海拔: 668米

当前天气观测

该预报发布于17分钟前的01:00 UTC
风速4节,风向北转东北,在西转西北之间变化
温度 28°C
湿度 62%
气压 1014 hPa
能见度10公里或以上
少量云层高于6000英尺
散云

METAR: RJAF 180100Z 02004KT 290V100 9999 FEW060 SCT/// 28/20 Q1014

时间: 10:17 (01:17 UTC)


TAF: 丢失

超过4000个机场的气象观测和天气预报(METAR&TAF报告)。

可查询的气象台以黄色和红色小点在地图上表示。

将鼠标移到小点上方,可查看气象台名称。

然后点击查看天气观测和预报。

如需切换地图:点击带黑十字的绿色按钮放大地图;点击带横线的绿色按钮缩小地图;或者点击绿色箭头查看邻近地区的地图。


METAR-TAF: